sensor_id;sensor_type;location;lat;lon;timestamp;pressure;altitude;pressure_sealevel;temperature;humidity
71573;BME280;59408;51.032;9.410;2023-01-23T00:01:50;100585.56;;;-1.35;100.00
71573;BME280;59408;51.032;9.410;2023-01-23T00:04:17;100587.66;;;-1.38;100.00
71573;BME280;59408;51.032;9.410;2023-01-23T00:06:43;100586.03;;;-1.39;100.00
71573;BME280;59408;51.032;9.410;2023-01-23T00:09:10;100588.47;;;-1.37;100.00
71573;BME280;59408;51.032;9.410;2023-01-23T00:11:38;100589.50;;;-1.38;100.00
71573;BME280;59408;51.032;9.410;2023-01-23T00:14:04;100590.56;;;-1.39;100.00
71573;BME280;59408;51.032;9.410;2023-01-23T00:16:32;100595.31;;;-1.41;100.00
71573;BME280;59408;51.032;9.410;2023-01-23T00:18:58;100593.88;;;-1.44;100.00
71573;BME280;59408;51.032;9.410;2023-01-23T00:21:27;100596.13;;;-1.41;100.00
71573;BME280;59408;51.032;9.410;2023-01-23T00:23:59;100599.84;;;-1.42;100.00
71573;BME280;59408;51.032;9.410;2023-01-23T00:26:27;100600.28;;;-1.45;100.00
71573;BME280;59408;51.032;9.410;2023-01-23T00:28:56;100591.88;;;-1.48;100.00
71573;BME280;59408;51.032;9.410;2023-01-23T00:31:25;100600.13;;;-1.50;100.00
71573;BME280;59408;51.032;9.410;2023-01-23T00:33:53;100593.34;;;-1.52;100.00
71573;BME280;59408;51.032;9.410;2023-01-23T00:36:21;100588.81;;;-1.52;100.00
71573;BME280;59408;51.032;9.410;2023-01-23T00:38:48;100595.81;;;-1.51;100.00
71573;BME280;59408;51.032;9.410;2023-01-23T00:41:14;100588.00;;;-1.52;100.00
71573;BME280;59408;51.032;9.410;2023-01-23T00:43:41;100586.16;;;-1.52;100.00
71573;BME280;59408;51.032;9.410;2023-01-23T00:46:09;100594.56;;;-1.48;100.00
71573;BME280;59408;51.032;9.410;2023-01-23T00:48:36;100589.63;;;-1.51;100.00
71573;BME280;59408;51.032;9.410;2023-01-23T00:51:03;100596.03;;;-1.52;100.00
71573;BME280;59408;51.032;9.410;2023-01-23T00:53:30;100598.91;;;-1.54;100.00
71573;BME280;59408;51.032;9.410;2023-01-23T00:55:56;100593.56;;;-1.54;100.00
71573;BME280;59408;51.032;9.410;2023-01-23T00:58:23;100602.66;;;-1.55;100.00
71573;BME280;59408;51.032;9.410;2023-01-23T01:00:50;100596.25;;;-1.54;100.00
71573;BME280;59408;51.032;9.410;2023-01-23T01:03:18;100595.88;;;-1.57;100.00
71573;BME280;59408;51.032;9.410;2023-01-23T01:05:45;100609.03;;;-1.56;100.00
71573;BME280;59408;51.032;9.410;2023-01-23T01:08:12;100602.47;;;-1.60;100.00
71573;BME280;59408;51.032;9.410;2023-01-23T01:10:39;100599.00;;;-1.60;100.00
71573;BME280;59408;51.032;9.410;2023-01-23T01:13:06;100605.84;;;-1.64;100.00
71573;BME280;59408;51.032;9.410;2023-01-23T01:15:33;100613.03;;;-1.65;100.00
71573;BME280;59408;51.032;9.410;2023-01-23T01:17:59;100612.22;;;-1.65;100.00
71573;BME280;59408;51.032;9.410;2023-01-23T01:20:28;100616.16;;;-1.68;100.00
71573;BME280;59408;51.032;9.410;2023-01-23T01:22:56;100621.72;;;-1.69;100.00
71573;BME280;59408;51.032;9.410;2023-01-23T01:25:23;100623.34;;;-1.68;100.00
71573;BME280;59408;51.032;9.410;2023-01-23T01:27:50;100632.41;;;-1.69;100.00
71573;BME280;59408;51.032;9.410;2023-01-23T01:30:17;100623.13;;;-1.67;100.00
71573;BME280;59408;51.032;9.410;2023-01-23T01:32:44;100627.44;;;-1.66;100.00
71573;BME280;59408;51.032;9.410;2023-01-23T01:35:11;100628.84;;;-1.63;100.00
71573;BME280;59408;51.032;9.410;2023-01-23T01:37:39;100625.38;;;-1.64;100.00
71573;BME280;59408;51.032;9.410;2023-01-23T01:40:11;100628.63;;;-1.62;100.00
71573;BME280;59408;51.032;9.410;2023-01-23T01:42:39;100632.53;;;-1.58;100.00
71573;BME280;59408;51.032;9.410;2023-01-23T01:48:07;100631.28;;;-1.55;100.00
71573;BME280;59408;51.032;9.410;2023-01-23T01:50:34;100632.88;;;-1.54;100.00
71573;BME280;59408;51.032;9.410;2023-01-23T01:53:02;100634.97;;;-1.56;100.00
71573;BME280;59408;51.032;9.410;2023-01-23T01:55:28;100653.50;;;-1.55;100.00
71573;BME280;59408;51.032;9.410;2023-01-23T01:57:55;100648.34;;;-1.56;100.00
71573;BME280;59408;51.032;9.410;2023-01-23T02:00:22;100647.53;;;-1.57;100.00
71573;BME280;59408;51.032;9.410;2023-01-23T02:02:51;100644.47;;;-1.60;100.00
71573;BME280;59408;51.032;9.410;2023-01-23T02:05:21;100651.69;;;-1.61;100.00
71573;BME280;59408;51.032;9.410;2023-01-23T02:07:52;100644.47;;;-1.60;100.00
71573;BME280;59408;51.032;9.410;2023-01-23T02:10:21;100633.97;;;-1.62;100.00
71573;BME280;59408;51.032;9.410;2023-01-23T02:12:50;100642.63;;;-1.60;100.00
71573;BME280;59408;51.032;9.410;2023-01-23T02:15:18;100633.78;;;-1.60;100.00
71573;BME280;59408;51.032;9.410;2023-01-23T02:17:49;100634.16;;;-1.57;100.00
71573;BME280;59408;51.032;9.410;2023-01-23T02:20:20;100644.25;;;-1.59;100.00
71573;BME280;59408;51.032;9.410;2023-01-23T02:22:52;100630.88;;;-1.59;100.00
71573;BME280;59408;51.032;9.410;2023-01-23T02:25:27;100636.63;;;-1.55;100.00
71573;BME280;59408;51.032;9.410;2023-01-23T02:27:57;100641.56;;;-1.59;100.00
71573;BME280;59408;51.032;9.410;2023-01-23T02:30:24;100637.88;;;-1.58;100.00
71573;BME280;59408;51.032;9.410;2023-01-23T02:32:50;100638.47;;;-1.56;100.00
71573;BME280;59408;51.032;9.410;2023-01-23T02:35:20;100641.16;;;-1.56;100.00
71573;BME280;59408;51.032;9.410;2023-01-23T02:37:51;100653.91;;;-1.58;100.00
71573;BME280;59408;51.032;9.410;2023-01-23T02:40:29;100649.59;;;-1.59;100.00
71573;BME280;59408;51.032;9.410;2023-01-23T02:42:57;100649.19;;;-1.56;100.00
71573;BME280;59408;51.032;9.410;2023-01-23T02:45:24;100666.88;;;-1.55;100.00
71573;BME280;59408;51.032;9.410;2023-01-23T02:47:51;100675.94;;;-1.56;100.00
71573;BME280;59408;51.032;9.410;2023-01-23T02:50:18;100675.69;;;-1.54;100.00
71573;BME280;59408;51.032;9.410;2023-01-23T02:52:45;100671.75;;;-1.52;100.00
71573;BME280;59408;51.032;9.410;2023-01-23T02:55:11;100676.91;;;-1.50;100.00
71573;BME280;59408;51.032;9.410;2023-01-23T02:57:38;100676.47;;;-1.47;100.00
71573;BME280;59408;51.032;9.410;2023-01-23T03:00:07;100677.50;;;-1.48;100.00
71573;BME280;59408;51.032;9.410;2023-01-23T03:02:34;100672.16;;;-1.48;100.00
71573;BME280;59408;51.032;9.410;2023-01-23T03:05:00;100672.16;;;-1.48;100.00
71573;BME280;59408;51.032;9.410;2023-01-23T03:07:27;100675.88;;;-1.49;100.00
71573;BME280;59408;51.032;9.410;2023-01-23T03:09:54;100684.94;;;-1.50;100.00
71573;BME280;59408;51.032;9.410;2023-01-23T03:12:20;100676.47;;;-1.47;100.00
71573;BME280;59408;51.032;9.410;2023-01-23T03:14:47;100685.97;;;-1.51;100.00
71573;BME280;59408;51.032;9.410;2023-01-23T03:17:15;100692.94;;;-1.50;100.00
71573;BME280;59408;51.032;9.410;2023-01-23T03:19:42;100689.47;;;-1.51;100.00
71573;BME280;59408;51.032;9.410;2023-01-23T03:22:08;100696.66;;;-1.51;100.00
71573;BME280;59408;51.032;9.410;2023-01-23T03:24:35;100693.78;;;-1.50;100.00
71573;BME280;59408;51.032;9.410;2023-01-23T03:27:01;100687.75;;;-1.45;100.00
71573;BME280;59408;51.032;9.410;2023-01-23T03:29:28;100684.66;;;-1.42;100.00
71573;BME280;59408;51.032;9.410;2023-01-23T03:31:55;100679.28;;;-1.42;100.00
71573;BME280;59408;51.032;9.410;2023-01-23T03:34:23;100679.50;;;-1.44;100.00
71573;BME280;59408;51.032;9.410;2023-01-23T03:36:49;100682.41;;;-1.45;100.00
71573;BME280;59408;51.032;9.410;2023-01-23T03:39:16;100684.28;;;-1.46;100.00
71573;BME280;59408;51.032;9.410;2023-01-23T03:41:42;100680.78;;;-1.46;100.00
71573;BME280;59408;51.032;9.410;2023-01-23T03:44:09;100682.66;;;-1.47;100.00
71573;BME280;59408;51.032;9.410;2023-01-23T03:46:35;100684.28;;;-1.46;100.00
71573;BME280;59408;51.032;9.410;2023-01-23T03:49:02;100682.19;;;-1.44;100.00
71573;BME280;59408;51.032;9.410;2023-01-23T03:51:30;100693.50;;;-1.42;100.00
71573;BME280;59408;51.032;9.410;2023-01-23T03:53:57;100689.56;;;-1.39;100.00
71573;BME280;59408;51.032;9.410;2023-01-23T03:56:24;100700.06;;;-1.38;100.00
71573;BME280;59408;51.032;9.410;2023-01-23T03:58:50;100708.09;;;-1.38;100.00
71573;BME280;59408;51.032;9.410;2023-01-23T04:01:17;100707.06;;;-1.36;100.00
71573;BME280;59408;51.032;9.410;2023-01-23T04:03:44;100704.94;;;-1.34;100.00
71573;BME280;59408;51.032;9.410;2023-01-23T04:06:10;100711.72;;;-1.32;100.00
71573;BME280;59408;51.032;9.410;2023-01-23T04:08:38;100715.22;;;-1.31;100.00
71573;BME280;59408;51.032;9.410;2023-01-23T04:11:06;100714.41;;;-1.32;100.00
71573;BME280;59408;51.032;9.410;2023-01-23T04:13:33;100711.53;;;-1.30;100.00
71573;BME280;59408;51.032;9.410;2023-01-23T04:16:00;100717.69;;;-1.30;100.00
71573;BME280;59408;51.032;9.410;2023-01-23T04:18:27;100714.19;;;-1.30;100.00
71573;BME280;59408;51.032;9.410;2023-01-23T04:20:54;100718.72;;;-1.31;100.00
71573;BME280;59408;51.032;9.410;2023-01-23T04:23:21;100718.72;;;-1.31;100.00
71573;BME280;59408;51.032;9.410;2023-01-23T04:25:50;100718.94;;;-1.32;100.00
71573;BME280;59408;51.032;9.410;2023-01-23T04:28:17;100719.38;;;-1.35;100.00
71573;BME280;59408;51.032;9.410;2023-01-23T04:30:44;100713.81;;;-1.34;100.00
71573;BME280;59408;51.032;9.410;2023-01-23T04:33:11;100704.53;;;-1.31;100.00
71573;BME280;59408;51.032;9.410;2023-01-23T04:35:38;100715.22;;;-1.31;100.00
71573;BME280;59408;51.032;9.410;2023-01-23T04:38:04;100713.16;;;-1.29;100.00
71573;BME280;59408;51.032;9.410;2023-01-23T04:40:31;100707.00;;;-1.30;100.00
71573;BME280;59408;51.032;9.410;2023-01-23T04:42:59;100707.41;;;-1.33;100.00
71573;BME280;59408;51.032;9.410;2023-01-23T04:45:25;100712.34;;;-1.30;100.00
71573;BME280;59408;51.032;9.410;2023-01-23T04:47:52;100703.50;;;-1.30;100.00
71573;BME280;59408;51.032;9.410;2023-01-23T04:50:19;100703.50;;;-1.30;100.00
71573;BME280;59408;51.032;9.410;2023-01-23T04:52:46;100698.13;;;-1.30;100.00
71573;BME280;59408;51.032;9.410;2023-01-23T04:55:12;100698.97;;;-1.30;100.00
71573;BME280;59408;51.032;9.410;2023-01-23T04:57:39;100694.47;;;-1.36;100.00
71573;BME280;59408;51.032;9.410;2023-01-23T05:00:09;100695.13;;;-1.41;100.00
71573;BME280;59408;51.032;9.410;2023-01-23T05:02:36;100692.06;;;-1.44;100.00
71573;BME280;59408;51.032;9.410;2023-01-23T05:05:03;100695.78;;;-1.45;100.00
71573;BME280;59408;51.032;9.410;2023-01-23T05:07:30;100687.75;;;-1.45;100.00
71573;BME280;59408;51.032;9.410;2023-01-23T05:09:56;100687.75;;;-1.45;100.00
71573;BME280;59408;51.032;9.410;2023-01-23T05:12:23;100696.59;;;-1.45;100.00
71573;BME280;59408;51.032;9.410;2023-01-23T05:14:49;100695.78;;;-1.45;100.00
71573;BME280;59408;51.032;9.410;2023-01-23T05:17:17;100699.88;;;-1.43;100.00
71573;BME280;59408;51.032;9.410;2023-01-23T05:19:44;100701.31;;;-1.40;100.00
71573;BME280;59408;51.032;9.410;2023-01-23T05:22:10;100704.13;;;-1.35;100.00
71573;BME280;59408;51.032;9.410;2023-01-23T05:24:37;100700.41;;;-1.34;100.00
71573;BME280;59408;51.032;9.410;2023-01-23T05:27:04;100696.09;;;-1.35;100.00
71573;BME280;59408;51.032;9.410;2023-01-23T05:29:30;100695.88;;;-1.33;100.00
71573;BME280;59408;51.032;9.410;2023-01-23T05:31:57;100691.13;;;-1.31;100.00
71573;BME280;59408;51.032;9.410;2023-01-23T05:34:25;100693.75;;;-1.25;100.00
71573;BME280;59408;51.032;9.410;2023-01-23T05:36:52;100688.41;;;-1.25;100.00
71573;BME280;59408;51.032;9.410;2023-01-23T05:39:18;100696.00;;;-1.22;100.00
71573;BME280;59408;51.032;9.410;2023-01-23T05:41:45;100695.78;;;-1.20;100.00
71573;BME280;59408;51.032;9.410;2023-01-23T05:44:12;100706.47;;;-1.20;100.00
71573;BME280;59408;51.032;9.410;2023-01-23T05:46:39;100710.63;;;-1.24;100.00
71573;BME280;59408;51.032;9.410;2023-01-23T05:49:05;100707.34;;;-1.26;100.00
71573;BME280;59408;51.032;9.410;2023-01-23T05:51:33;100714.72;;;-1.22;100.00
71573;BME280;59408;51.032;9.410;2023-01-23T05:54:00;100722.16;;;-1.24;100.00
71573;BME280;59408;51.032;9.410;2023-01-23T05:56:27;100718.44;;;-1.23;100.00
71573;BME280;59408;51.032;9.410;2023-01-23T05:58:54;100722.97;;;-1.23;100.00
71573;BME280;59408;51.032;9.410;2023-01-23T06:01:21;100715.56;;;-1.21;100.00
71573;BME280;59408;51.032;9.410;2023-01-23T06:03:48;100727.72;;;-1.25;100.00
71573;BME280;59408;51.032;9.410;2023-01-23T06:06:14;100730.63;;;-1.27;100.00
71573;BME280;59408;51.032;9.410;2023-01-23T06:08:42;100737.19;;;-1.23;100.00
71573;BME280;59408;51.032;9.410;2023-01-23T06:11:09;100742.53;;;-1.23;100.00
71573;BME280;59408;51.032;9.410;2023-01-23T06:13:36;100743.56;;;-1.24;100.00
71573;BME280;59408;51.032;9.410;2023-01-23T06:16:02;100741.50;;;-1.22;100.00
71573;BME280;59408;51.032;9.410;2023-01-23T06:18:29;100749.75;;;-1.23;100.00
71573;BME280;59408;51.032;9.410;2023-01-23T06:20:57;100748.91;;;-1.24;100.00
71573;BME280;59408;51.032;9.410;2023-01-23T06:23:23;100756.34;;;-1.26;100.00
71573;BME280;59408;51.032;9.410;2023-01-23T06:25:51;100761.69;;;-1.26;100.00
71573;BME280;59408;51.032;9.410;2023-01-23T06:28:18;100759.84;;;-1.25;100.00
71573;BME280;59408;51.032;9.410;2023-01-23T06:30:45;100762.72;;;-1.27;100.00
71573;BME280;59408;51.032;9.410;2023-01-23T06:33:12;100758.81;;;-1.24;100.00
71573;BME280;59408;51.032;9.410;2023-01-23T06:35:38;100762.31;;;-1.24;100.00
71573;BME280;59408;51.032;9.410;2023-01-23T06:38:05;100760.03;;;-1.20;100.00
71573;BME280;59408;51.032;9.410;2023-01-23T06:40:32;100765.38;;;-1.20;100.00
71573;BME280;59408;51.032;9.410;2023-01-23T06:43:00;100776.69;;;-1.18;100.00
71573;BME280;59408;51.032;9.410;2023-01-23T06:45:26;100784.47;;;-1.17;100.00
71573;BME280;59408;51.032;9.410;2023-01-23T06:47:53;100779.59;;;-1.20;100.00
71573;BME280;59408;51.032;9.410;2023-01-23T06:50:19;100780.41;;;-1.19;100.00
71573;BME280;59408;51.032;9.410;2023-01-23T06:52:46;100776.69;;;-1.18;100.00
71573;BME280;59408;51.032;9.410;2023-01-23T06:55:13;100784.72;;;-1.18;100.00
71573;BME280;59408;51.032;9.410;2023-01-23T06:57:40;100790.88;;;-1.18;100.00
71573;BME280;59408;51.032;9.410;2023-01-23T07:00:09;100799.34;;;-1.21;100.00
71573;BME280;59408;51.032;9.410;2023-01-23T07:02:36;100805.97;;;-1.23;100.00
71573;BME280;59408;51.032;9.410;2023-01-23T07:05:04;100819.34;;;-1.23;100.00
71573;BME280;59408;51.032;9.410;2023-01-23T07:07:31;100823.44;;;-1.21;100.00
71573;BME280;59408;51.032;9.410;2023-01-23T07:09:57;100818.09;;;-1.21;100.00
71573;BME280;59408;51.032;9.410;2023-01-23T07:12:24;100819.94;;;-1.21;100.00
71573;BME280;59408;51.032;9.410;2023-01-23T07:14:51;100825.09;;;-1.20;100.00
71573;BME280;59408;51.032;9.410;2023-01-23T07:17:19;100824.28;;;-1.20;100.00
71573;BME280;59408;51.032;9.410;2023-01-23T07:19:45;100813.56;;;-1.20;100.00
71573;BME280;59408;51.032;9.410;2023-01-23T07:22:15;100824.06;;;-1.19;100.00
71573;BME280;59408;51.032;9.410;2023-01-23T07:24:42;100832.09;;;-1.19;100.00
71573;BME280;59408;51.032;9.410;2023-01-23T07:27:09;100833.72;;;-1.18;100.00
71573;BME280;59408;51.032;9.410;2023-01-23T07:29:35;100832.47;;;-1.15;100.00
71573;BME280;59408;51.032;9.410;2023-01-23T07:32:02;100827.94;;;-1.15;100.00
71573;BME280;59408;51.032;9.410;2023-01-23T07:34:30;100828.53;;;-1.13;100.00
71573;BME280;59408;51.032;9.410;2023-01-23T07:36:57;100835.53;;;-1.12;100.00
71573;BME280;59408;51.032;9.410;2023-01-23T07:39:24;100836.72;;;-1.08;100.00
71573;BME280;59408;51.032;9.410;2023-01-23T07:41:50;100843.09;;;-1.09;100.00
71573;BME280;59408;51.032;9.410;2023-01-23T07:44:19;100840.69;;;-1.10;100.00
71573;BME280;59408;51.032;9.410;2023-01-23T07:46:47;100841.03;;;-1.07;100.00
71573;BME280;59408;51.032;9.410;2023-01-23T07:49:14;100838.38;;;-1.07;100.00
71573;BME280;59408;51.032;9.410;2023-01-23T07:51:42;100832.78;;;-1.05;100.00
71573;BME280;59408;51.032;9.410;2023-01-23T07:54:09;100828.03;;;-1.03;100.00
71573;BME280;59408;51.032;9.410;2023-01-23T07:56:36;100838.75;;;-1.03;100.00
71573;BME280;59408;51.032;9.410;2023-01-23T07:59:02;100835.03;;;-1.02;100.00
71573;BME280;59408;51.032;9.410;2023-01-23T08:01:29;100834.84;;;-1.01;100.00
71573;BME280;59408;51.032;9.410;2023-01-23T08:03:56;100838.09;;;-0.98;100.00
71573;BME280;59408;51.032;9.410;2023-01-23T08:06:22;100843.84;;;-0.95;100.00
71573;BME280;59408;51.032;9.410;2023-01-23T08:08:50;100847.94;;;-0.92;100.00
71573;BME280;59408;51.032;9.410;2023-01-23T08:11:17;100846.44;;;-0.88;100.00
71573;BME280;59408;51.032;9.410;2023-01-23T08:13:47;100846.25;;;-0.87;100.00
71573;BME280;59408;51.032;9.410;2023-01-23T08:16:14;100853.84;;;-0.84;100.00
71573;BME280;59408;51.032;9.410;2023-01-23T08:18:41;100857.09;;;-0.82;100.00
71573;BME280;59408;51.032;9.410;2023-01-23T08:21:08;100865.97;;;-0.81;100.00
71573;BME280;59408;51.032;9.410;2023-01-23T08:23:35;100870.50;;;-0.82;100.00
71573;BME280;59408;51.032;9.410;2023-01-23T08:26:05;100872.97;;;-0.80;100.00
71573;BME280;59408;51.032;9.410;2023-01-23T08:28:32;100878.31;;;-0.80;100.00
71573;BME280;59408;51.032;9.410;2023-01-23T08:30:59;100872.75;;;-0.79;100.00
71573;BME280;59408;51.032;9.410;2023-01-23T08:33:25;100875.00;;;-0.76;100.00
71573;BME280;59408;51.032;9.410;2023-01-23T08:35:53;100886.53;;;-0.75;100.00
71573;BME280;59408;51.032;9.410;2023-01-23T08:38:21;100895.19;;;-0.73;100.00
71573;BME280;59408;51.032;9.410;2023-01-23T08:40:49;100893.06;;;-0.71;100.00
71573;BME280;59408;51.032;9.410;2023-01-23T08:43:18;100898.00;;;-0.68;100.00
71573;BME280;59408;51.032;9.410;2023-01-23T08:45:47;100905.63;;;-0.65;100.00
71573;BME280;59408;51.032;9.410;2023-01-23T08:48:14;100905.78;;;-0.60;100.00
71573;BME280;59408;51.032;9.410;2023-01-23T08:50:41;100905.34;;;-0.57;100.00
71573;BME280;59408;51.032;9.410;2023-01-23T08:53:08;100908.78;;;-0.50;100.00
71573;BME280;59408;51.032;9.410;2023-01-23T08:55:35;100908.56;;;-0.48;100.00
71573;BME280;59408;51.032;9.410;2023-01-23T08:58:01;100906.25;;;-0.45;100.00
71573;BME280;59408;51.032;9.410;2023-01-23T09:00:29;100907.88;;;-0.44;100.00
71573;BME280;59408;51.032;9.410;2023-01-23T09:02:58;100913.41;;;-0.39;100.00
71573;BME280;59408;51.032;9.410;2023-01-23T09:05:24;100918.56;;;-0.37;100.00
71573;BME280;59408;51.032;9.410;2023-01-23T09:07:52;100928.81;;;-0.34;100.00
71573;BME280;59408;51.032;9.410;2023-01-23T09:10:18;100922.44;;;-0.33;100.00
71573;BME280;59408;51.032;9.410;2023-01-23T09:12:45;100924.91;;;-0.32;100.00
71573;BME280;59408;51.032;9.410;2023-01-23T09:15:12;100929.44;;;-0.32;100.00
71573;BME280;59408;51.032;9.410;2023-01-23T09:17:40;100925.50;;;-0.30;100.00
71573;BME280;59408;51.032;9.410;2023-01-23T09:20:08;100923.19;;;-0.26;100.00
71573;BME280;59408;51.032;9.410;2023-01-23T09:22:35;100921.50;;;-0.20;100.00
71573;BME280;59408;51.032;9.410;2023-01-23T09:25:02;100918.34;;;-0.17;100.00
71573;BME280;59408;51.032;9.410;2023-01-23T09:27:29;100922.25;;;-0.13;100.00
71573;BME280;59408;51.032;9.410;2023-01-23T09:29:55;100931.09;;;-0.13;100.00
71573;BME280;59408;51.032;9.410;2023-01-23T09:32:22;100931.84;;;-0.06;100.00
71573;BME280;59408;51.032;9.410;2023-01-23T09:34:50;100930.38;;;-0.02;99.85
71573;BME280;59408;51.032;9.410;2023-01-23T09:37:16;100925.38;;;0.02;99.93
71573;BME280;59408;51.032;9.410;2023-01-23T09:39:43;100936.25;;;0.07;99.71
71573;BME280;59408;51.032;9.410;2023-01-23T09:42:15;100932.69;;;0.13;100.00
71573;BME280;59408;51.032;9.410;2023-01-23T09:44:44;100935.28;;;0.20;100.00
71573;BME280;59408;51.032;9.410;2023-01-23T09:47:15;100933.81;;;0.24;99.06
71573;BME280;59408;51.032;9.410;2023-01-23T09:49:46;100937.66;;;0.28;98.78
71573;BME280;59408;51.032;9.410;2023-01-23T09:52:18;100935.34;;;0.31;98.63
71573;BME280;59408;51.032;9.410;2023-01-23T09:54:48;100938.78;;;0.38;97.66
71573;BME280;59408;51.032;9.410;2023-01-23T09:57:19;100937.72;;;0.39;97.72
71573;BME280;59408;51.032;9.410;2023-01-23T09:59:50;100932.75;;;0.43;97.61
71573;BME280;59408;51.032;9.410;2023-01-23T10:02:26;100937.50;;;0.41;97.84
71573;BME280;59408;51.032;9.410;2023-01-23T10:04:55;100926.47;;;0.49;98.79
71573;BME280;59408;51.032;9.410;2023-01-23T10:07:42;100929.44;;;0.59;97.82
71573;BME280;59408;51.032;9.410;2023-01-23T10:13:18;100927.75;;;0.76;96.25
71573;BME280;59408;51.032;9.410;2023-01-23T10:16:13;100932.91;;;0.78;96.72
71573;BME280;59408;51.032;9.410;2023-01-23T10:18:59;100925.34;;;0.86;96.05
71573;BME280;59408;51.032;9.410;2023-01-23T10:21:31;100923.59;;;0.92;95.71
71573;BME280;59408;51.032;9.410;2023-01-23T10:24:04;100922.09;;;0.96;95.16
71573;BME280;59408;51.032;9.410;2023-01-23T10:26:42;100912.88;;;1.04;94.11
71573;BME280;59408;51.032;9.410;2023-01-23T10:29:14;100915.03;;;1.13;94.31
71573;BME280;59408;51.032;9.410;2023-01-23T10:31:49;100914.78;;;1.15;94.39
71573;BME280;59408;51.032;9.410;2023-01-23T10:34:20;100916.22;;;1.17;93.67
71573;BME280;59408;51.032;9.410;2023-01-23T10:37:01;100920.75;;;1.17;93.88
71573;BME280;59408;51.032;9.410;2023-01-23T10:39:40;100910.13;;;1.22;93.54
71573;BME280;59408;51.032;9.410;2023-01-23T10:42:10;100912.22;;;1.20;93.88
71573;BME280;59408;51.032;9.410;2023-01-23T10:44:38;100911.09;;;1.28;93.54
71573;BME280;59408;51.032;9.410;2023-01-23T10:47:14;100911.78;;;1.23;93.05
71573;BME280;59408;51.032;9.410;2023-01-23T10:49:44;100903.94;;;1.21;93.21
71573;BME280;59408;51.032;9.410;2023-01-23T10:52:29;100904.41;;;1.18;93.24
71573;BME280;59408;51.032;9.410;2023-01-23T10:54:57;100899.03;;;1.18;92.77
71573;BME280;59408;51.032;9.410;2023-01-23T10:57:25;100907.09;;;1.18;92.69
71573;BME280;59408;51.032;9.410;2023-01-23T10:59:55;100898.69;;;1.27;92.64
71573;BME280;59408;51.032;9.410;2023-01-23T11:02:27;100900.09;;;1.29;92.70
71573;BME280;59408;51.032;9.410;2023-01-23T11:04:54;100899.41;;;1.34;92.54
71573;BME280;59408;51.032;9.410;2023-01-23T11:07:22;100898.47;;;1.51;92.00
71573;BME280;59408;51.032;9.410;2023-01-23T11:09:53;100892.88;;;1.53;92.70
71573;BME280;59408;51.032;9.410;2023-01-23T11:12:23;100888.19;;;1.48;91.65
71573;BME280;59408;51.032;9.410;2023-01-23T11:14:51;100896.81;;;1.39;91.62
71573;BME280;59408;51.032;9.410;2023-01-23T11:17:36;100887.69;;;1.28;91.66
71573;BME280;59408;51.032;9.410;2023-01-23T11:20:10;100890.75;;;1.32;92.38
71573;BME280;59408;51.032;9.410;2023-01-23T11:22:38;100893.44;;;1.32;92.05
71573;BME280;59408;51.032;9.410;2023-01-23T11:25:27;100892.97;;;1.35;92.57
71573;BME280;59408;51.032;9.410;2023-01-23T11:27:57;100889.25;;;1.36;91.28
71573;BME280;59408;51.032;9.410;2023-01-23T11:30:36;100889.34;;;1.41;91.68
71573;BME280;59408;51.032;9.410;2023-01-23T11:33:13;100885.72;;;1.47;91.84
71573;BME280;59408;51.032;9.410;2023-01-23T11:35:57;100889.34;;;1.64;91.59
71573;BME280;59408;51.032;9.410;2023-01-23T11:38:26;100893.09;;;1.63;90.57
71573;BME280;59408;51.032;9.410;2023-01-23T11:40:56;100893.22;;;1.68;91.21
71573;BME280;59408;51.032;9.410;2023-01-23T11:43:24;100894.84;;;1.69;91.15
71573;BME280;59408;51.032;9.410;2023-01-23T11:46:02;100899.88;;;1.77;90.13
71573;BME280;59408;51.032;9.410;2023-01-23T11:48:44;100893.75;;;1.93;89.83
71573;BME280;59408;51.032;9.410;2023-01-23T11:51:19;100895.16;;;1.96;90.16
71573;BME280;59408;51.032;9.410;2023-01-23T11:53:51;100891.06;;;2.05;89.50
71573;BME280;59408;51.032;9.410;2023-01-23T11:56:54;100889.63;;;2.14;87.75
71573;BME280;59408;51.032;9.410;2023-01-23T11:59:46;100885.78;;;2.10;87.89
71573;BME280;59408;51.032;9.410;2023-01-23T12:02:40;100896.53;;;2.22;87.96
71573;BME280;59408;51.032;9.410;2023-01-23T12:08:49;100888.59;;;2.04;87.11
71573;BME280;59408;51.032;9.410;2023-01-23T12:11:21;100889.78;;;1.96;86.70
71573;BME280;59408;51.032;9.410;2023-01-23T12:13:57;100888.06;;;1.90;88.10
71573;BME280;59408;51.032;9.410;2023-01-23T12:16:36;100889.31;;;1.99;87.50
71573;BME280;59408;51.032;9.410;2023-01-23T12:19:15;100889.78;;;2.08;87.63
71573;BME280;59408;51.032;9.410;2023-01-23T12:21:48;100895.72;;;2.10;87.62
71573;BME280;59408;51.032;9.410;2023-01-23T12:24:29;100891.03;;;2.17;88.18
71573;BME280;59408;51.032;9.410;2023-01-23T12:27:05;100882.31;;;2.38;88.08
71573;BME280;59408;51.032;9.410;2023-01-23T12:29:48;100887.66;;;2.50;88.55
71573;BME280;59408;51.032;9.410;2023-01-23T12:32:32;100882.34;;;2.83;87.58
71573;BME280;59408;51.032;9.410;2023-01-23T12:35:09;100875.38;;;2.99;86.83
71573;BME280;59408;51.032;9.410;2023-01-23T12:37:56;100874.63;;;3.03;86.74
71573;BME280;59408;51.032;9.410;2023-01-23T12:40:29;100879.16;;;2.86;85.27
71573;BME280;59408;51.032;9.410;2023-01-23T12:43:01;100880.03;;;2.75;86.76
71573;BME280;59408;51.032;9.410;2023-01-23T12:45:31;100887.38;;;2.63;87.31
71573;BME280;59408;51.032;9.410;2023-01-23T12:48:04;100885.44;;;2.47;86.82
71573;BME280;59408;51.032;9.410;2023-01-23T12:50:38;100870.41;;;2.22;87.01
71573;BME280;59408;51.032;9.410;2023-01-23T12:53:09;100879.00;;;2.08;87.21
71573;BME280;59408;51.032;9.410;2023-01-23T12:55:39;100881.72;;;1.96;87.66
71573;BME280;59408;51.032;9.410;2023-01-23T12:58:11;100870.03;;;1.90;87.73
71573;BME280;59408;51.032;9.410;2023-01-23T13:00:51;100869.47;;;1.77;89.75
71573;BME280;59408;51.032;9.410;2023-01-23T13:03:41;100868.19;;;1.68;88.46
71573;BME280;59408;51.032;9.410;2023-01-23T13:06:26;100865.25;;;1.69;89.52